Dover, Canada
Current Conditions -  °F | °C
As of 4:00 AM on Thursday 23 Oct 2014 (Local Time) from CYQX Reporting Station
Broken Clouds Broken Clouds  
Wind Chill: 31°   Ceiling: 26000
Heat Index: 36°   Visibility: 20mi
Dew Point: 36°   Wind: 6mph
Humidity: 100%   Direction: 210°SSW
Pressure: 30.41"   Gusts: NA
Location:  48.85°N, 53.98°W
Report Text: CYQX 230600Z 21005KT 20SM FEW030 BKN260 02/02 A3041 RMK SC1CI6 SLP305
Loading
Personal Weather Stations






























Interactive Weather Map
Tropical Storm Tracking
New forecast layout! Learn more

10-Day Weather Forecast

Advertisements
Track Severe Weather on mobile